Datum max min   Außentemperatur Tagesdurchschnitt Außenfeuchte Tagesdurchschnitt Taupunkt Tagesdurchschnitt Windchill Tagesdurchschnitt Windgeschwindigkeit Tagesdurchschnitt   Mindesttemperatur Höchsttemperatur Höchste Windgeschwindigkeit  Tägliche Niederschlagsmenge 
  °C % °C °C km/h   °C °C km/h mm/m²
 
mittelwert
01.01.1973     1024,5 -3,2           -8,2 0,5   0,0
02.01.1973     1025,0 -3,2           -7,0 2,2   0,0
03.01.1973     1025,8 -3,6           -9,0 -1,6   0,2
04.01.1973     1029,5 -0,9           -2,4 0,4   0,1
05.01.1973     1033,3 -2,2           -5,0 -1,1   0,0
06.01.1973     1034,2 -1,8           -2,8 -0,4   0,1
07.01.1973     1031,8 -3,0           -7,0 0,0   0,1
08.01.1973     1029,7 -3,2           -3,7 -2,6   0,1
09.01.1973     1026,7 -2,0           -3,3 -1,3   0,7
10.01.1973     1025,9 -1,0           -2,0 -0,2   0,0
11.01.1973     1027,1 -0,2           -1,5 -0,1   0,0
12.01.1973     1028,1 -0,6           -1,0 0,0   0,0
13.01.1973     1024,2 -2,4           -3,9 0,2   0,0
14.01.1973     1019,1 -2,1           -5,5 0,5   0,0
15.01.1973     1009,3 -2,2           -3,8 0,4   3,3
16.01.1973     1007,4 -2,8           -3,8 -1,7   4,7
17.01.1973     1007,7 -3,9           -4,4 -3,0   0,0
18.01.1973     1012,5 -4,6           -5,1 -4,0   0,0
19.01.1973     1013,3 -3,6           -4,9 -2,6   0,1
20.01.1973     1008,5 -2,5           -4,5 -1,6   0,1
21.01.1973     1011,1 -0,4           -3,9 0,7   0,1
22.01.1973     1020,1 -1,0           -3,0 1,0   0,0
23.01.1973     1029,3 -2,6           -3,5 -0,7   0,0
24.01.1973     1031,8 -5,7           -7,4 -3,3   0,0
25.01.1973     1027,8 -3,4           -12,4 -0,5   0,0
26.01.1973     1019,0 -4,8           -5,6 -1,7   2,2
27.01.1973     1002,7 -0,2           -4,8 0,3   2,7
28.01.1973     1009,9 -0,7           -1,6 0,5   1,4
29.01.1973     1015,0 0,2           -3,6 0,9   0,7
30.01.1973     1013,7 2,0           0,7 2,5   2,3
31.01.1973     1011,5 1,6           1,2 2,1   2,9
01.02.1973     1015,1 -0,4           -0,7 1,5   0,8
02.02.1973     1024,3 -0,8           -2,9 1,4   0,1
03.02.1973     1029,8 -2,7           -5,6 2,1   0,0
04.02.1973     1030,2 -0,9           -5,9 5,0   0,0
05.02.1973     1025,9 -3,7           -4,4 -1,8   0,1
06.02.1973     1020,3 -0,7           -4,3 0,5   0,2
07.02.1973     1014,1 1,8           0,5 2,3   0,7
08.02.1973     1011,4 1,7           1,2 2,3   1,4
09.02.1973     1004,7 2,9           1,4 5,1   1,9
10.02.1973     1004,2 -0,2           -1,1 2,8   3,1
11.02.1973     1010,9 -2,4           -4,4 -0,3   1,3
12.02.1973     1002,6 -0,5           -3,0 0,1   8,6
13.02.1973     988,7 -0,6           -1,9 0,5   0,2
14.02.1973     991,7 -2,2           -4,0 2,0   0,0
15.02.1973     995,9 -4,6           -8,6 0,2   0,1
16.02.1973     1005,1 -3,5           -9,5 -1,5   0,0
17.02.1973     1009,8 -2,4           -4,6 -0,7   0,0
18.02.1973     1010,1 -1,5           -3,3 -0,2   3,2
19.02.1973     1016,5 -1,1           -1,8 0,5   1,9
20.02.1973     1022,6 -0,5           -2,2 1,4   1,3
21.02.1973     1016,1 1,0           -0,4 1,8   3,7
22.02.1973     1009,0 1,0           0,3 2,4   2,0
23.02.1973     1001,7 -1,5           -2,2 0,6   5,9
24.02.1973     995,8 -2,8           -4,5 -1,5   10,1
25.02.1973     1002,9 -3,8           -5,3 -1,6   0,5
26.02.1973     1008,3 -7,0           -9,1 -1,5   1,5
27.02.1973     1019,1 -7,2           -10,7 -5,3   0,6
28.02.1973     1026,9 -4,2           -9,1 -0,8   0,0
01.03.1973     1025,1 -1,5           -4,2 0,7   0,0
02.03.1973     1020,2 -1,0           -6,5 0,7   2,4
03.03.1973     1024,7 0,2           -1,2 1,0   4,1
04.03.1973     1026,1 1,6           0,4 3,1   0,3
05.03.1973     1023,5 2,6           1,2 6,6   0,0
06.03.1973     1017,7 1,7           -0,5 4,9   0,0
07.03.1973     1022,5 1,0           -1,5 5,5   0,1
08.03.1973     1026,6 -0,5           -2,9 1,6   1,4
09.03.1973     1026,3 -1,3           -2,1 1,1   0,8
10.03.1973     1026,5 -3,3           -4,5 0,0   0,0
11.03.1973     1020,3 -0,2           -9,0 3,0   3,2
12.03.1973     1015,1 -1,7           -2,9 0,3   0,0
13.03.1973     1017,7 -2,0           -3,0 -1,0   0,0
14.03.1973     1018,2 -1,4           -5,3 1,2   0,0
15.03.1973     1023,1 -1,1           -5,2 1,8   0,0
16.03.1973     1024,2 -0,8           -2,6 3,2   0,0
17.03.1973     1019,4 1,1           -7,4 5,2   1,3
18.03.1973     1011,0 1,7           0,7 3,5   1,7
19.03.1973     1018,6 0,3           -1,5 1,7   0,6
20.03.1973     1024,9 1,1           -2,7 2,8   0,1
21.03.1973     1026,5 2,4           0,7 5,4   0,0
22.03.1973     1024,3 2,6           -3,1 10,1   0,0
23.03.1973     1019,8 4,4           -3,3 14,4   0,0
24.03.1973     1015,0 6,1           -1,9 15,0   0,0
25.03.1973     1013,3 6,7           -1,0 14,8   0,0
26.03.1973     1019,4 6,1           2,5 9,7   0,0
27.03.1973     1017,7 7,3           3,0 13,7   0,0
28.03.1973     1016,5 7,1           1,8 14,0   0,0
29.03.1973     1021,3 4,1           2,4 6,0   0,0
30.03.1973     1015,8 4,8           0,1 10,4   0,0
31.03.1973     1017,1 3,2           0,7 6,0   0,5
01.04.1973     1014,2 4,2           -1,8 7,3   1,4
02.04.1973     1001,9 3,6           2,2 5,5   13,4
03.04.1973     1009,9 0,7           -0,6 4,5   2,0
04.04.1973     1026,2 0,6           -3,1 4,4   0,0
05.04.1973     1019,5 5,8           -1,1 8,0   0,2
06.04.1973     1012,1 7,6           5,4 10,7   0,0
07.04.1973     1009,7 2,4           0,6 7,4   1,1
08.04.1973     1009,7 0,8           -2,0 4,7   0,1
09.04.1973     1005,9 0,6           -2,3 2,7   5,5
10.04.1973     1000,1 -0,6           -1,1 0,3   18,2
11.04.1973     1004,9 -0,9           -3,7 0,1   3,3
12.04.1973     1008,5 -0,4           -3,5 1,6   8,8
13.04.1973     1016,6 -1,6           -2,8 1,6   0,8
14.04.1973     1023,3 -1,5           -8,3 3,1   0,0
15.04.1973     1020,9 1,5           -6,3 6,0   0,0
16.04.1973     1023,1 2,3           0,4 4,5   0,4
17.04.1973     1017,9 2,5           1,0 5,2   1,6
18.04.1973     1011,1 1,2           -1,7 5,4   2,5
19.04.1973     1004,5 1,0           -2,0 5,1   0,2
20.04.1973     1006,1 1,2           -0,1 5,0   0,3
21.04.1973     1008,1 2,6           -1,6 5,8   0,0
22.04.1973     1010,6 2,1           -0,4 7,2   0,2
23.04.1973     1013,0 6,5           -2,5 13,6   0,0
24.04.1973     1010,2 6,7           0,1 11,3   0,0
25.04.1973     1014,6 2,5           1,8 6,1   0,0
26.04.1973     1016,6 6,0           -3,4 11,6   0,0
27.04.1973     1012,9 6,8           -2,2 14,5   0,0
28.04.1973     1005,9 9,1           0,7 14,7   0,7
29.04.1973     1005,5 10,0           8,0 13,8   7,8
30.04.1973     1015,3 10,6           4,4 16,8   0,0
01.05.1973     1011,1 16,8           8,1 23,1   2,2
02.05.1973     1012,5 12,3           10,0 18,3   15,1
03.05.1973     1011,5 11,8           9,6 17,4   0,1
04.05.1973     1014,1 15,6           8,5 23,7   0,0
05.05.1973     1013,7 19,6           10,5 24,8   0,2
06.05.1973     1018,6 9,8           9,0 19,8   0,0
07.05.1973     1014,6 9,0           5,6 14,4   0,4
08.05.1973     1016,2 5,6           4,3 9,6   1,5
09.05.1973     1020,7 5,1           2,0 9,7   7,7
10.05.1973     1015,9 8,3           4,3 9,4   1,5
11.05.1973     1018,7 5,7           3,5 11,8   0,2
12.05.1973     1023,9 7,8           -1,1 13,0   0,0
13.05.1973     1021,0 11,6           2,2 16,5   0,0
14.05.1973     1018,1 11,1           6,3 16,8   0,7
15.05.1973     1021,9 5,2           3,3 10,0   0,0
16.05.1973     1022,7 5,4           -1,6 10,4   0,0
17.05.1973     1018,7 8,6           -1,6 13,5   0,0
18.05.1973     1013,9 10,2           2,8 15,8   0,0
19.05.1973     1007,4 14,6           3,6 20,7   0,0
20.05.1973     1007,3 12,0           9,5 17,1   0,0
21.05.1973     1009,5 13,5           6,9 21,6   14,3
22.05.1973     1015,3 14,4           10,7 20,1   1,5
23.05.1973     1018,5 13,0           8,0 18,3   3,3
24.05.1973     1021,3 10,6           8,2 14,5   4,6
25.05.1973     1024,1 10,0           8,5 12,9   0,1
26.05.1973     1026,1 10,6           7,3 14,5   0,0
27.05.1973     1025,1 10,4           4,3 15,7   0,0
28.05.1973     1020,6 13,9           3,3 19,8   0,0
29.05.1973     1015,5 18,3           6,9 22,1   1,8
30.05.1973     1013,4 14,4           11,0 19,4   2,2
31.05.1973     1012,7 14,2           11,3 18,7   1,9
01.06.1973     1011,9 18,8           10,6 24,0   5,5
02.06.1973     1014,7 13,4           10,8 18,0   0,2
03.06.1973     1020,6 12,0           6,4 16,5   0,0
04.06.1973     1023,3 14,6           4,3 21,6   0,0
05.06.1973     1026,5 11,8           8,8 16,1   0,0
06.06.1973     1025,0 11,0           5,2 15,4   0,3
07.06.1973     1019,5 9,4           5,5 11,9   6,5
08.06.1973     1015,7 10,8           6,0 11,6   6,7
09.06.1973     1013,0 13,4           10,3 18,0   0,0
10.06.1973     1013,3 15,0           10,5 18,5   0,0
11.06.1973     1018,7 13,2           10,8 16,2   0,0
12.06.1973     1019,5 16,5           5,6 22,9   0,0
13.06.1973     1017,7 17,5           9,2 25,2   15,8
14.06.1973     1026,1 9,9           6,6 15,2   0,0
15.06.1973     1026,9 10,8           3,6 14,7   0,0
16.06.1973     1022,1 10,6           8,4 16,0   0,0
17.06.1973     1017,1 15,4           4,4 19,9   2,2
18.06.1973     1017,3 12,4           11,7 16,0   3,7
19.06.1973     1017,9 13,2           9,3 19,0   0,0
20.06.1973     1013,4 15,4           5,6 22,0   0,0
21.06.1973     1016,9 13,4           7,6 18,2   0,0
22.06.1973     1019,0 13,2           7,4 17,4   2,4
23.06.1973     1014,2 11,7           10,0 12,8   13,6
24.06.1973     1016,1 14,2           11,6 17,0   9,3
25.06.1973     1019,4 17,6           12,6 23,1   0,0
26.06.1973     1021,7 18,6           10,8 25,5   0,0
27.06.1973     1019,9 21,9           11,7 28,0   0,0
28.06.1973     1018,3 20,4           16,7 24,1   0,8
29.06.1973     1020,2 15,0           13,2 19,9   1,2
30.06.1973     1024,1 16,9           10,3 22,3   0,0
01.07.1973     1023,5 16,2           10,8 23,8   0,0
02.07.1973     1022,9 20,0           12,0 25,5   0,0
03.07.1973     1022,1 21,0           13,0 27,5   0,0
04.07.1973     1019,1 20,6           15,5 25,6   0,0
05.07.1973     1015,5 20,7           12,1 26,5   0,0
06.07.1973     1013,9 21,7           13,9 28,0   0,2
07.07.1973     1015,8 16,4           15,1 20,5   0,4
08.07.1973     1018,6 15,8           14,5 19,4   0,0
09.07.1973     1018,6 13,6           10,7 19,3   0,0
10.07.1973     1019,7 15,8           5,9 22,6   0,9
11.07.1973     1016,5 15,6           10,0 23,0   3,7
12.07.1973     1012,7 13,5           12,5 18,8   2,6
13.07.1973     1013,7 13,6           11,3 16,6   0,0
14.07.1973     1010,7 16,4           7,3 22,1   0,7
15.07.1973     1004,1 17,0           11,9 22,3   34,3
16.07.1973     1009,1 16,4           12,6 22,0   2,9
17.07.1973     1010,3 13,6           12,2 17,7   0,2
18.07.1973     1011,5 13,8           11,1 17,7   0,2
19.07.1973     1012,5 13,7           11,1 18,7   2,4
20.07.1973     1011,0 14,7           11,6 19,0   3,5
21.07.1973     1010,9 14,7           11,6 18,7   0,1
22.07.1973     1012,2 13,3           9,5 19,1   6,7
23.07.1973     1011,1 11,2           9,6 14,3   4,2
24.07.1973     1007,0 11,3           8,0 14,5   0,0
25.07.1973     1007,7 11,5           8,1 16,5   0,5
26.07.1973     1011,0 11,2           8,3 12,0   7,9
27.07.1973     1014,5 10,9           10,0 14,0   0,6
28.07.1973     1015,9 11,1           8,0 12,3   3,8
29.07.1973     1018,3 14,6           12,0 19,9   1,3
30.07.1973     1019,9 14,6           10,5 20,3   0,0
31.07.1973     1020,9 15,7           7,6 21,8   0,0
01.08.1973     1019,0 17,3           9,4 24,4   0,0
02.08.1973     1015,9 18,2           10,6 25,6   0,0
03.08.1973     1015,5 16,4           11,6 22,2   1,0
04.08.1973     1015,1 16,3           11,7 20,3   0,0
05.08.1973     1017,3 16,1           14,2 21,0   0,0
06.08.1973     1017,4 21,4           10,6 28,5   0,0
07.08.1973     1018,7 16,1           13,8 20,4   7,9
08.08.1973     1025,1 11,7           9,3 17,8   0,0
09.08.1973     1024,9 13,7           4,0 20,6   0,0
10.08.1973     1024,2 17,8           6,9 25,5   0,0
11.08.1973     1022,6 19,4           9,4 27,8   0,0
12.08.1973     1025,8 16,2           12,4 20,8   0,0
13.08.1973     1025,5 14,8           9,0 22,0   0,0
14.08.1973     1024,1 15,2           8,0 23,1   0,0
15.08.1973     1022,3 16,4           8,4 23,1   0,0
16.08.1973     1021,0 17,6           9,6 25,0   0,0
17.08.1973     1019,8 18,8           8,9 26,7   0,0
18.08.1973     1019,9 19,3           10,1 27,8   0,0
19.08.1973     1018,2 21,3           12,8 27,0   0,0
20.08.1973     1017,1 18,3           16,8 24,5   0,3
21.08.1973     1022,6 11,4           10,1 17,0   0,4
22.08.1973     1025,8 9,8           4,2 17,5   0,0
23.08.1973     1022,7 14,0           3,9 22,6   0,0
24.08.1973     1017,0 16,6           6,9 24,2   0,0
25.08.1973     1017,7 14,5           11,4 19,7   0,0
26.08.1973     1019,8 15,3           8,6 22,8   0,0
27.08.1973     1018,9 15,6           7,9 23,5   0,0
28.08.1973     1017,5 16,8           6,3 24,9   0,0
29.08.1973     1017,4 15,6           7,4 22,8   0,0
30.08.1973     1015,0 15,1           8,1 18,2   5,3
31.08.1973     1018,3 11,0           9,8 14,7   0,2
01.09.1973     1020,3 13,9           7,7 19,0   0,0
02.09.1973     1020,1 17,0           10,5 21,8   0,0
03.09.1973     1020,1 18,0           11,0 24,9   0,0
04.09.1973     1020,5 18,7           8,7 26,8   0,0
05.09.1973     1021,5 20,2           11,0 28,9   0,0
06.09.1973     1023,4 20,2           9,6 28,4   0,0
07.09.1973     1022,3 18,9           11,1 25,5   0,0
08.09.1973     1016,5 17,9           12,5 27,8   0,0
09.09.1973     1018,2 19,8           6,5 18,8   0,5
10.09.1973     1024,5 9,7           1,0 13,0   0,0
11.09.1973     1022,5 8,2           0,9 14,9   0,0
12.09.1973     1022,2 8,1           7,3 16,2   0,0
13.09.1973     1021,0 10,0           2,1 19,1   0,0
14.09.1973     1020,9 10,6           2,0 19,0   0,0
15.09.1973     1021,3 12,1           3,5 22,3   0,0
16.09.1973     1017,3 15,5           3,9 24,3   0,0
17.09.1973     1014,7 14,4           11,9 19,8   1,1
18.09.1973     1010,9 15,5           7,3 20,5   0,0
19.09.1973     1010,5 13,8           9,4 19,3   0,0
20.09.1973     1011,8 12,8           9,1 18,6   0,0
21.09.1973     1005,7 11,5           9,5 20,3   1,3
22.09.1973     1010,2 7,9           5,9 13,9   0,0
23.09.1973     1014,6 9,9           1,8 14,9   3,3
24.09.1973     1016,7 8,0           7,3 10,3   0,4
25.09.1973     1019,4 8,9           5,0 13,0   0,0
26.09.1973     1021,5 8,8           4,6 12,0   0,0
27.09.1973     1019,1 8,3           5,1 11,7   0,0
28.09.1973     1014,3 11,9           5,8 14,4   0,0
29.09.1973     1009,3 9,5           7,6 14,5   6,4
30.09.1973     1014,2 7,8           5,6 11,8   0,0
01.10.1973     1014,2 7,3           5,6 11,8   0,0
02.10.1973     1025,1 8,5           2,5 15,0   0,0
03.10.1973     1024,2 9,5           1,6 18,5   0,0
04.10.1973     1024,3 11,0           3,8 19,2   0,0
05.10.1973     1022,5 11,3           5,5 18,5   0,0
06.10.1973     1020,5 10,9           3,8 19,7   0,0
07.10.1973     1020,1 9,5           7,6 13,2   0,0
08.10.1973     1020,5 10,6           7,9 14,2   0,1
09.10.1973     1017,8 9,2           5,2 11,5   0,0
10.10.1973     1014,7 9,4           7,4 14,3   0,0
11.10.1973     1011,8 4,4           0,1 11,3   10,1
12.10.1973     1020,1 -0,7           -3,0 3,5   0,2
13.10.1973     1008,1 1,8           -3,5 6,2   0,0
14.10.1973     999,4 4,1           0,4 7,4   2,1
15.10.1973     994,3 9,0           3,5 10,6   2,0
16.10.1973     996,2 7,9           6,3 9,9   11,0
17.10.1973     1004,2 4,8           1,7 9,0   1,7
18.10.1973     1015,8 2,1           0,6 4,5   0,0
19.10.1973     1014,9 2,5           -1,5 6,2   7,2
20.10.1973     1014,1 3,5           2,3 5,3   24,9
21.10.1973     1005,0 6,0           2,4 8,0   17,6
22.10.1973     1021,4 2,5           1,0 5,6   3,0
23.10.1973     1019,0 3,8           1,0 7,1   13,6
24.10.1973     1032,5 -0,4           -2,3 4,0   0,0
25.10.1973     1032,3 -0,4           -5,7 6,2   0,0
26.10.1973     1029,5 3,8           -2,2 11,8   0,0
27.10.1973     1026,7 2,2           -1,7 10,3   0,0
28.10.1973     1022,9 3,9           -2,5 9,0   0,0
29.10.1973     1024,2 4,6           -0,9 8,1   0,0
30.10.1973     1022,7 4,7           0,2 6,2   1,9
31.10.1973     1025,5 2,2           0,0 6,3   0,0
01.11.1973     1025,1 0,7           -2,0 5,2   0,0
02.11.1973     1022,1 -1,0           -5,5 6,2   0,0
03.11.1973     1020,2 1,4           -5,3 9,6   0,0
04.11.1973     1016,3 2,8           -1,9 8,3   0,0
05.11.1973     1009,4 8,4           1,0 11,6   5,6
06.11.1973     1013,1 1,9           1,4 10,4   0,1
07.11.1973     1023,7 2,0           -0,2 2,8   0,0
08.11.1973     1025,4 2,7           0,8 3,7   0,7
09.11.1973     1022,2 6,3           3,4 7,4   0,1
10.11.1973     1016,6 5,5           5,1 6,6   0,0
11.11.1973     1015,5 4,2           3,3 6,0   0,0
12.11.1973     1017,9 2,2           0,4 3,9   2,7
13.11.1973     1002,7 3,3           0,4 5,1   13,8
14.11.1973     1006,7 1,7           0,3 3,3   1,1
15.11.1973     1004,2 1,6           0,2 3,7   2,8
16.11.1973     1008,1 1,1           0,2 2,2   1,2
17.11.1973     1020,2 0,2           -0,5 1,5   0,3
18.11.1973     1022,6 -1,1           -4,7 2,1   0,0
19.11.1973     1013,9 2,0           -3,3 4,4   1,1
20.11.1973     1024,2 1,5           0,5 3,1   0,1
21.11.1973     1030,9 0,7           -0,2 2,5   0,0
22.11.1973     1025,7 1,4           -2,6 5,1   0,0
23.11.1973     1020,7 3,4           -0,6 4,2   0,0
24.11.1973     1011,5 5,7           3,5 6,6   0,5
25.11.1973     1011,9 0,3           -1,3 6,5   2,7
26.11.1973     1013,0 -2,0           -3,8 -0,7   2,2
27.11.1973     1014,3 -3,4           -4,4 -1,8   2,7
28.11.1973     1016,3 -4,0           -8,2 -2,7   1,6
29.11.1973     1005,0 -3,7           -7,1 -4,2   3,5
30.11.1973     1010,1 -10,3           -15,0 -5,1   0,3
01.12.1973     1012,9 -11,3           -19,9 -9,3   0,2
02.12.1973     1024,3 -14,5           -17,5 -10,0   0,0
03.12.1973     1022,7 -10,8           -16,8 -9,8   1,2
04.12.1973     1011,3 -1,0           -10,1 0,7   5,7
05.12.1973     1017,5 0,6           -1,5 1,5   0,6
06.12.1973     1007,8 2,0           0,0 3,4   6,8
07.12.1973     1005,5 -1,5           -4,0 1,0   3,2
08.12.1973     993,3 2,8           -2,8 5,8   9,6
09.12.1973     1020,9 -6,0           -8,6 1,8   0,1
10.12.1973     1026,3 -9,0           -13,7 -5,9   0,0
11.12.1973     1019,1 -5,2           -10,9 -3,2   0,1
12.12.1973     1020,1 -2,1           -3,6 -1,0   1,8
13.12.1973     1003,1 0,2           -2,8 0,9   9,3
14.12.1973     993,9 -1,9           -2,3 1,2   2,3
15.12.1973     1009,4 -2,7           -4,1 -2,0   1,6
16.12.1973     1007,0 -2,5           -3,4 -2,2   2,3
17.12.1973     1000,1 -1,1           -2,9 -0,3   2,1
18.12.1973     1007,7 -2,3           -3,4 -1,3   0,0
19.12.1973     1010,2 -6,0           -8,4 -1,7   0,0
20.12.1973     1005,4 -5,7           -8,7 -3,3   0,0
21.12.1973     995,7 -2,1           -7,4 -0,6   0,8
22.12.1973     998,9 1,8           -1,9 2,3   2,3
23.12.1973     1004,6 0,7           -0,4 3,0   0,0
24.12.1973     1008,6 -1,8           -3,1 1,2   0,1
25.12.1973     1010,2 -1,2           -5,9 0,1   0,1
26.12.1973     1017,9 -1,0           -1,5 -0,3   0,1
27.12.1973     1026,1 -0,8           -2,6 -0,5   0,0
28.12.1973     1028,6 -0,1           -1,1 0,3   0,4
29.12.1973     1029,1 -0,3           -1,4 1,0   0,0
30.12.1973     1021,9 -1,9           -3,3 -0,5   0,0
31.12.1973     1025,0 -2,1           -4,4 -0,8   0,1